This is the latest recevied weather packets stored in our database for station/object SP8AQK-13. If no packets are shown the sender has not sent any weather packets the latest 10 day(s).
| Time | Temp. | Humidity | Pressure | Rain* | Wind** | Luminosity | Snow |
|---|---|---|---|---|---|---|---|
| 1777417429 | 0° C | 77% | 1027.3 hPa | - | - | - | - |
| 1777416228 | 0° C | 78% | 1027.2 hPa | - | - | - | - |
| 1777415027 | 0.56° C | 77% | 1027.2 hPa | - | - | - | - |
| 1777413826 | 0.56° C | 75% | 1027.2 hPa | - | - | - | - |
| 1777412626 | 0.56° C | 74% | 1027.2 hPa | - | - | - | - |
| 1777411426 | 1.11° C | 72% | 1027 hPa | - | - | - | - |
| 1777410224 | 1.67° C | 71% | 1026.9 hPa | - | - | - | - |
| 1777409023 | 1.67° C | 69% | 1026.8 hPa | - | - | - | - |
| 1777407823 | 1.67° C | 69% | 1026.8 hPa | - | - | - | - |
| 1777406622 | 1.67° C | 69% | 1026.6 hPa | - | - | - | - |
| 1777405422 | 2.22° C | 65% | 1026.5 hPa | - | - | - | - |
| 1777404220 | 2.78° C | 64% | 1026.4 hPa | - | - | - | - |
| 1777403020 | 3.89° C | 59% | 1026.2 hPa | - | - | - | - |
| 1777401819 | 5° C | 52% | 1026.1 hPa | - | - | - | - |
| 1777400618 | 6.11° C | 51% | 1025.9 hPa | - | - | - | - |
| 1777399418 | 6.67° C | 49% | 1025.5 hPa | - | - | - | - |
| 1777398217 | 7.22° C | 50% | 1025.2 hPa | - | - | - | - |
| 1777397016 | 8.33° C | 44% | 1024.8 hPa | - | - | - | - |
| 1777395815 | 9.44° C | 38% | 1024.6 hPa | - | - | - | - |
| 1777394615 | 9.44° C | 37% | 1024.4 hPa | - | - | - | - |
| 1777393414 | 10° C | 35% | 1024.3 hPa | - | - | - | - |
| 1777392213 | 10° C | 37% | 1024.2 hPa | - | - | - | - |
| 1777391012 | 10.56° C | 35% | 1024.3 hPa | - | - | - | - |
| 1777389813 | 11.11° C | 34% | 1024.4 hPa | - | - | - | - |
| 1777388611 | 11.11° C | 33% | 1024.3 hPa | - | - | - | - |
* Rain since midnight (hover to see other rain measurements)
** Current wind speed in m/s (hover to see current wind gust speed)